createdAt,value
2018-07-11T00:00:59.782Z,15.63
2018-07-11T00:03:46.014Z,15.66
2018-07-11T00:06:17.676Z,15.65
2018-07-11T00:08:47.786Z,15.70
2018-07-11T00:11:18.519Z,15.77
2018-07-11T00:13:49.144Z,15.64
2018-07-11T00:16:19.132Z,15.62
2018-07-11T00:18:49.089Z,15.56
2018-07-11T00:21:19.301Z,15.56
2018-07-11T00:23:49.277Z,15.53
2018-07-11T00:26:19.508Z,15.45
2018-07-11T00:28:50.399Z,15.38
2018-07-11T00:31:20.459Z,15.39
2018-07-11T00:33:50.446Z,15.29
2018-07-11T00:36:20.345Z,15.24
2018-07-11T00:38:50.760Z,15.24
2018-07-11T00:41:20.625Z,15.19
2018-07-11T00:43:50.492Z,15.22
2018-07-11T00:46:20.930Z,15.22
2018-07-11T00:48:50.812Z,15.22
2018-07-11T00:51:20.780Z,15.25
2018-07-11T00:53:50.984Z,15.27
2018-07-11T00:56:20.907Z,15.29
2018-07-11T00:59:29.495Z,15.31
2018-07-11T01:02:08.094Z,15.28
2018-07-11T01:04:37.978Z,15.28
2018-07-11T01:07:08.272Z,15.32
2018-07-11T01:09:49.137Z,15.31
2018-07-11T01:12:20.035Z,15.41
2018-07-11T01:14:49.938Z,15.61
2018-07-11T01:17:25.010Z,15.71
2018-07-11T01:19:54.878Z,15.99
2018-07-11T01:22:25.075Z,15.89
2018-07-11T01:24:54.951Z,15.69
2018-07-11T01:27:24.791Z,15.67
2018-07-11T01:29:54.666Z,15.82
2018-07-11T01:32:24.494Z,15.81
2018-07-11T01:34:54.392Z,16.10
2018-07-11T01:37:24.211Z,16.10
2018-07-11T01:39:54.184Z,16.02
2018-07-11T01:42:24.088Z,16.00
2018-07-11T01:44:53.922Z,15.85
2018-07-11T01:47:23.846Z,15.91
2018-07-11T01:49:53.346Z,15.82
2018-07-11T01:52:39.815Z,15.79
2018-07-11T01:55:09.688Z,15.71
2018-07-11T01:57:39.642Z,15.51
2018-07-11T02:00:09.572Z,15.49
2018-07-11T02:02:39.550Z,15.56
2018-07-11T02:05:09.458Z,15.53
2018-07-11T02:07:39.398Z,15.79
2018-07-11T02:10:09.336Z,15.96
2018-07-11T02:12:40.781Z,15.72
2018-07-11T02:15:11.846Z,15.41
2018-07-11T02:17:42.780Z,15.33
2018-07-11T02:20:17.275Z,15.39
2018-07-11T02:22:51.828Z,15.21
2018-07-11T02:25:22.231Z,15.17
2018-07-11T02:27:52.725Z,15.15
2018-07-11T02:30:22.795Z,15.10
2018-07-11T02:32:52.763Z,15.08
2018-07-11T02:35:22.937Z,15.12
2018-07-11T02:37:53.519Z,15.23
2018-07-11T02:40:23.336Z,15.32
2018-07-11T02:42:54.481Z,15.35
2018-07-11T02:45:24.323Z,15.32
2018-07-11T02:47:54.435Z,15.31
2018-07-11T02:50:24.301Z,15.29
2018-07-11T02:52:53.774Z,15.21
2018-07-11T02:55:23.585Z,15.24
2018-07-11T02:57:53.451Z,15.18
2018-07-11T03:00:23.310Z,15.13
2018-07-11T03:02:53.134Z,15.04
2018-07-11T03:08:58.254Z,14.92
2018-07-11T03:11:28.093Z,14.90
2018-07-11T03:13:57.940Z,14.98
2018-07-11T03:16:27.751Z,15.09
2018-07-11T03:18:57.723Z,15.13
2018-07-11T03:21:27.920Z,15.09
2018-07-11T03:23:57.957Z,15.00
2018-07-11T03:26:27.800Z,14.93
2018-07-11T03:28:57.670Z,14.91
2018-07-11T03:31:27.912Z,14.88
2018-07-11T03:33:57.829Z,14.90
2018-07-11T03:36:28.315Z,14.80
2018-07-11T03:38:58.194Z,14.80
2018-07-11T03:41:28.052Z,14.70
2018-07-11T03:43:57.996Z,14.71
2018-07-11T03:46:27.893Z,14.75
2018-07-11T03:48:58.122Z,14.83
2018-07-11T03:51:28.287Z,14.87
2018-07-11T03:53:58.537Z,14.84
2018-07-11T03:56:28.367Z,14.90
2018-07-11T03:58:58.195Z,14.90
2018-07-11T04:01:28.385Z,14.97
2018-07-11T04:03:58.247Z,14.99
2018-07-11T04:06:28.165Z,14.96
2018-07-11T04:08:58.031Z,14.85
2018-07-11T04:11:27.957Z,14.91
2018-07-11T04:13:57.765Z,14.88
2018-07-11T04:16:27.603Z,15.01
2018-07-11T04:18:57.419Z,15.00
2018-07-11T04:21:27.279Z,15.09
2018-07-11T04:23:57.437Z,15.07
2018-07-11T04:26:27.452Z,15.39
2018-07-11T04:28:57.789Z,15.43
2018-07-11T04:31:27.753Z,15.37
2018-07-11T04:33:57.647Z,15.46
2018-07-11T04:36:27.525Z,15.27
2018-07-11T04:38:57.531Z,15.50
2018-07-11T04:41:27.440Z,15.54
2018-07-11T04:43:57.581Z,15.59
2018-07-11T04:46:27.468Z,15.80
2018-07-11T04:48:57.921Z,15.98
2018-07-11T04:51:27.795Z,16.08
2018-07-11T04:53:57.995Z,16.31
2018-07-11T04:56:28.778Z,16.30
2018-07-11T04:58:58.583Z,16.39
2018-07-11T05:01:28.253Z,16.37
2018-07-11T05:03:58.511Z,16.38
2018-07-11T05:06:28.373Z,16.31
2018-07-11T05:08:58.718Z,16.50
2018-07-11T05:11:28.640Z,16.46
2018-07-11T05:13:58.674Z,16.50
2018-07-11T05:16:28.565Z,16.64
2018-07-11T05:18:58.961Z,16.91
2018-07-11T05:21:28.825Z,17.10
2018-07-11T05:23:58.692Z,17.35
2018-07-11T05:26:28.702Z,17.49
2018-07-11T05:28:58.624Z,17.37
2018-07-11T05:31:28.474Z,17.31
2018-07-11T05:33:58.372Z,17.11
2018-07-11T05:36:28.291Z,17.13
2018-07-11T05:38:58.433Z,16.98
2018-07-11T05:41:28.372Z,16.80
2018-07-11T05:43:58.356Z,16.75
2018-07-11T05:46:28.194Z,16.79
2018-07-11T05:48:58.040Z,16.74
2018-07-11T05:51:27.879Z,16.83
2018-07-11T05:53:58.021Z,17.10
2018-07-11T05:56:28.183Z,17.04
2018-07-11T05:58:58.060Z,17.11
2018-07-11T06:01:28.260Z,17.06
2018-07-11T06:03:58.134Z,17.13
2018-07-11T06:06:28.339Z,17.15
2018-07-11T06:08:58.156Z,17.22
2018-07-11T06:11:28.030Z,17.29
2018-07-11T06:13:57.850Z,17.66
2018-07-11T06:16:27.926Z,17.62
2018-07-11T06:25:45.130Z,18.37
2018-07-11T06:29:17.010Z,18.89
2018-07-11T06:31:47.262Z,19.51
2018-07-11T06:34:17.057Z,19.66
2018-07-11T06:36:47.160Z,19.96
2018-07-11T06:39:17.438Z,19.65
2018-07-11T06:41:47.934Z,19.51
2018-07-11T06:44:18.945Z,19.62
2018-07-11T06:46:49.237Z,19.44
2018-07-11T06:49:19.762Z,18.99
2018-07-11T06:51:49.535Z,19.32
2018-07-11T06:54:19.352Z,19.67
2018-07-11T06:56:49.098Z,19.72
2018-07-11T06:59:18.882Z,20.10
2018-07-11T07:01:49.264Z,20.17
2018-07-11T07:04:19.654Z,20.26
2018-07-11T07:06:50.003Z,20.44
2018-07-11T07:09:20.346Z,20.85
2018-07-11T07:11:50.706Z,21.12
2018-07-11T07:14:21.090Z,21.20
2018-07-11T07:16:51.500Z,21.01
2018-07-11T07:19:21.929Z,21.02
2018-07-11T07:21:52.364Z,20.94
2018-07-11T07:24:23.247Z,20.71
2018-07-11T07:26:53.590Z,20.47
2018-07-11T07:29:23.977Z,20.41
2018-07-11T07:31:54.052Z,20.34
2018-07-11T07:34:24.736Z,19.97
2018-07-11T07:36:55.105Z,19.57
2018-07-11T07:39:25.615Z,19.39
2018-07-11T07:41:56.024Z,19.70
2018-07-11T07:44:26.388Z,19.73
2018-07-11T07:46:59.855Z,19.95
2018-07-11T07:49:32.099Z,20.05
2018-07-11T07:52:02.471Z,20.48
2018-07-11T07:54:32.908Z,20.17
2018-07-11T07:57:03.393Z,20.39
2018-07-11T07:59:33.867Z,19.72
2018-07-11T08:02:03.892Z,18.98
2018-07-11T08:04:33.721Z,18.40
2018-07-11T08:07:03.660Z,18.69
2018-07-11T08:09:33.556Z,19.54
2018-07-11T08:12:03.475Z,19.83
2018-07-11T08:14:34.200Z,20.36
2018-07-11T08:17:04.629Z,20.43
2018-07-11T08:19:35.061Z,20.53
2018-07-11T08:22:22.529Z,20.68
2018-07-11T08:25:09.577Z,20.61
2018-07-11T08:28:00.673Z,21.02
2018-07-11T08:31:57.796Z,21.10
2018-07-11T08:34:46.731Z,21.15
2018-07-11T08:40:35.104Z,21.03
2018-07-11T08:43:58.992Z,20.89
2018-07-11T08:48:54.777Z,20.82
2018-07-11T08:54:20.727Z,21.81
2018-07-11T08:57:04.131Z,21.48
2018-07-11T09:01:54.215Z,22.12
2018-07-11T09:04:55.166Z,22.80
2018-07-11T09:07:49.446Z,22.12
2018-07-11T09:12:54.919Z,22.49
2018-07-11T09:15:45.615Z,22.63
2018-07-11T09:19:05.938Z,22.57
2018-07-11T09:23:02.254Z,22.71
2018-07-11T09:25:32.680Z,22.51
2018-07-11T09:28:03.041Z,22.68
2018-07-11T09:30:33.482Z,22.89
2018-07-11T09:33:04.123Z,22.91
2018-07-11T09:35:34.591Z,23.13
2018-07-11T09:38:05.309Z,23.05
2018-07-11T09:40:35.731Z,22.96
2018-07-11T09:43:06.289Z,23.16
2018-07-11T09:45:36.769Z,23.12
2018-07-11T09:48:07.903Z,23.83
2018-07-11T09:50:38.669Z,23.74
2018-07-11T09:53:09.238Z,23.81
2018-07-11T09:55:39.964Z,23.60
2018-07-11T09:58:10.787Z,23.64
2018-07-11T10:00:46.517Z,23.88
2018-07-11T10:03:17.029Z,23.23
2018-07-11T10:05:47.503Z,23.10
2018-07-11T10:08:18.507Z,23.13
2018-07-11T10:10:48.933Z,23.38
2018-07-11T10:13:19.239Z,23.17
2018-07-11T10:15:49.617Z,23.81
2018-07-11T10:18:19.959Z,24.16
2018-07-11T10:20:50.361Z,24.44
2018-07-11T10:23:21.235Z,24.30
2018-07-11T10:25:51.905Z,24.31
2018-07-11T10:28:22.269Z,24.09
2018-07-11T10:30:52.611Z,24.21
2018-07-11T10:33:22.981Z,23.69
2018-07-11T10:35:53.808Z,23.35
2018-07-11T10:38:24.158Z,23.03
2018-07-11T10:40:54.899Z,23.01
2018-07-11T10:43:25.266Z,23.25
2018-07-11T10:45:55.693Z,23.56
2018-07-11T10:48:26.062Z,23.65
2018-07-11T10:50:56.831Z,23.60
2018-07-11T10:53:27.525Z,23.55
2018-07-11T10:55:58.276Z,23.07
2018-07-11T10:58:28.726Z,23.00
2018-07-11T11:01:05.695Z,22.65
2018-07-11T11:03:30.882Z,22.29
2018-07-11T11:06:01.249Z,22.58
2018-07-11T11:09:18.771Z,22.32
2018-07-11T11:11:49.385Z,22.04
2018-07-11T11:14:19.847Z,21.74
2018-07-11T11:16:50.307Z,21.40
2018-07-11T11:19:21.323Z,21.60
2018-07-11T11:21:51.824Z,20.96
2018-07-11T11:24:22.285Z,20.88
2018-07-11T11:26:52.676Z,21.37
2018-07-11T11:29:23.076Z,21.49
2018-07-11T11:31:53.872Z,21.24
2018-07-11T11:34:24.864Z,21.20
2018-07-11T11:36:55.685Z,20.74
2018-07-11T11:39:26.073Z,21.48
2018-07-11T11:41:56.579Z,22.70
2018-07-11T11:44:27.419Z,23.43
2018-07-11T11:47:01.801Z,24.39
2018-07-11T11:49:32.638Z,24.26
2018-07-11T11:52:03.044Z,24.61
2018-07-11T11:54:34.068Z,24.86
2018-07-11T11:57:04.456Z,25.57
2018-07-11T11:59:34.847Z,25.22
2018-07-11T12:02:05.621Z,24.90
2018-07-11T12:04:36.098Z,24.94
2018-07-11T12:07:06.669Z,24.42
2018-07-11T12:09:37.174Z,24.05
2018-07-11T12:12:07.579Z,22.84
2018-07-11T12:14:38.273Z,23.33
2018-07-11T12:17:08.689Z,23.44
2018-07-11T12:19:39.195Z,23.36
2018-07-11T12:22:10.041Z,23.64
2018-07-11T12:24:40.831Z,23.74
2018-07-11T12:59:22.022Z,24.14
2018-07-11T13:01:52.526Z,23.93
2018-07-11T13:04:24.629Z,24.45
2018-07-11T13:06:55.060Z,24.48
2018-07-11T13:09:25.491Z,24.81
2018-07-11T13:11:56.027Z,25.00
2018-07-11T13:14:26.777Z,24.84
2018-07-11T13:16:57.257Z,24.29
2018-07-11T13:19:27.843Z,23.83
2018-07-11T16:50:55.193Z,24.77
2018-07-11T16:53:25.908Z,24.54
2018-07-11T16:55:58.018Z,24.51
2018-07-11T16:58:35.231Z,24.50
2018-07-11T17:01:06.026Z,23.99
2018-07-11T17:03:40.247Z,23.72
2018-07-11T17:06:11.220Z,23.53
2018-07-11T17:08:50.827Z,23.49
2018-07-11T17:11:28.087Z,23.22
2018-07-11T17:14:00.962Z,23.33
2018-07-11T17:17:04.466Z,23.51
2018-07-11T17:20:11.815Z,23.04
2018-07-11T17:22:54.371Z,22.38
2018-07-11T17:25:29.360Z,21.86
2018-07-11T17:28:03.524Z,21.79
2018-07-11T17:31:17.988Z,21.91
2018-07-11T17:33:48.453Z,21.79
2018-07-11T17:36:20.099Z,21.69
2018-07-11T17:38:50.500Z,21.58
2018-07-11T17:41:21.310Z,21.50
2018-07-11T17:43:54.730Z,21.40
2018-07-11T17:46:25.104Z,21.19
2018-07-11T17:49:14.123Z,20.98
2018-07-11T17:51:53.601Z,20.83
2018-07-11T17:55:35.918Z,20.73
2018-07-11T17:58:09.190Z,20.66
2018-07-11T18:00:50.076Z,20.67
2018-07-11T18:05:39.745Z,20.67
2018-07-11T18:08:12.045Z,20.40
2018-07-11T18:10:50.181Z,20.29
2018-07-11T18:13:32.763Z,20.42
2018-07-11T18:16:20.615Z,20.40
2018-07-11T18:19:10.612Z,20.25
2018-07-11T18:21:57.869Z,20.05
2018-07-11T18:24:45.264Z,20.05
2018-07-11T18:27:32.105Z,20.01
2018-07-11T18:31:19.487Z,20.05
2018-07-11T18:34:31.299Z,19.97
2018-07-11T18:39:29.504Z,19.88
2018-07-11T18:42:19.345Z,19.84
2018-07-11T18:45:08.342Z,19.81
2018-07-11T18:52:09.855Z,19.83
2018-07-11T18:57:11.349Z,19.51
2018-07-11T18:59:55.515Z,19.34
2018-07-11T19:02:54.667Z,19.38
2018-07-11T19:05:49.749Z,19.26
2018-07-11T19:09:06.997Z,19.16
2018-07-11T19:12:21.419Z,19.03
2018-07-11T19:15:14.188Z,19.00
2018-07-11T19:18:04.388Z,18.87
2018-07-11T19:20:45.415Z,18.90
2018-07-11T19:23:35.277Z,18.82
2018-07-11T19:27:33.363Z,18.76
2018-07-11T19:30:12.036Z,18.68
2018-07-11T19:33:58.131Z,18.58
2018-07-11T19:38:17.456Z,18.52
2018-07-11T19:40:54.513Z,18.50
2018-07-11T19:44:45.511Z,18.40
2018-07-11T19:48:05.755Z,18.27
2018-07-11T19:50:55.269Z,18.19
2018-07-11T19:53:55.074Z,18.20
2018-07-11T19:56:41.157Z,18.11
2018-07-11T19:59:11.076Z,18.07
2018-07-11T20:01:41.198Z,18.05
2018-07-11T20:04:13.015Z,17.89
2018-07-11T20:06:43.873Z,17.77
2018-07-11T20:09:14.339Z,17.76
2018-07-11T20:11:44.163Z,17.69
2018-07-11T20:14:14.719Z,17.65
2018-07-11T20:16:46.095Z,17.68
2018-07-11T20:19:16.367Z,17.73
2018-07-11T20:21:46.260Z,17.80
2018-07-11T20:24:16.135Z,17.88
2018-07-11T20:26:46.354Z,17.80
2018-07-11T20:29:16.203Z,17.70
2018-07-11T20:31:46.148Z,17.68
2018-07-11T20:34:16.367Z,17.61
2018-07-11T20:36:46.232Z,17.62
2018-07-11T20:39:16.264Z,17.62
2018-07-11T20:41:46.227Z,17.65
2018-07-11T20:44:16.139Z,17.77
2018-07-11T20:46:46.066Z,17.81
2018-07-11T20:49:47.927Z,17.95
2018-07-11T20:52:17.697Z,17.89
2018-07-11T20:54:48.092Z,17.77
2018-07-11T20:57:18.001Z,17.75
2018-07-11T21:01:02.538Z,17.78
2018-07-11T21:05:52.732Z,17.94
2018-07-11T21:08:52.721Z,17.80
2018-07-11T21:14:48.596Z,17.58
2018-07-11T21:19:39.225Z,17.58
2018-07-11T21:22:09.437Z,17.43
2018-07-11T21:24:39.636Z,17.36
2018-07-11T21:27:09.485Z,17.34
2018-07-11T21:29:39.438Z,17.32
2018-07-11T21:32:09.505Z,17.40
2018-07-11T21:34:39.270Z,17.31
2018-07-11T21:37:09.554Z,17.17
2018-07-11T21:39:40.046Z,17.15
2018-07-11T21:42:09.929Z,17.18
2018-07-11T21:44:39.805Z,17.14
2018-07-11T21:47:09.686Z,17.07
2018-07-11T21:49:39.629Z,17.10
2018-07-11T21:52:09.535Z,16.96
2018-07-11T21:54:39.736Z,16.92
2018-07-11T21:57:09.763Z,16.97
2018-07-11T21:59:39.449Z,17.05
2018-07-11T22:02:09.682Z,16.88
2018-07-11T22:04:39.666Z,16.81
2018-07-11T22:07:09.709Z,16.97
2018-07-11T22:09:39.604Z,16.91
2018-07-11T22:12:09.486Z,17.05
2018-07-11T22:14:41.328Z,16.97
2018-07-11T22:17:27.421Z,16.96
2018-07-11T22:19:55.593Z,16.92
2018-07-11T22:22:23.520Z,16.79
2018-07-11T22:24:51.458Z,16.76
2018-07-11T22:27:19.383Z,16.75
2018-07-11T22:33:23.887Z,16.68
2018-07-11T22:35:52.003Z,16.43
2018-07-11T22:38:19.955Z,16.57
2018-07-11T22:40:47.930Z,16.59
2018-07-11T22:43:15.883Z,16.57
2018-07-11T22:45:43.847Z,16.54
2018-07-11T22:48:11.804Z,16.39
2018-07-11T22:50:40.624Z,16.42
2018-07-11T22:53:08.626Z,16.55
2018-07-11T22:55:36.579Z,16.40
2018-07-11T22:58:04.527Z,16.45
2018-07-11T23:00:32.468Z,16.51
2018-07-11T23:03:00.431Z,16.57
2018-07-11T23:05:28.346Z,16.19
2018-07-11T23:07:56.305Z,15.96
2018-07-11T23:10:24.255Z,15.91
2018-07-11T23:12:52.499Z,15.93
2018-07-11T23:15:20.437Z,15.76
2018-07-11T23:17:50.030Z,15.66
2018-07-11T23:20:17.965Z,15.52
2018-07-11T23:22:46.005Z,15.59
2018-07-11T23:25:13.960Z,15.59
2018-07-11T23:27:41.908Z,15.79
2018-07-11T23:30:09.854Z,15.75
2018-07-11T23:32:37.793Z,15.73
2018-07-11T23:35:06.092Z,15.83
2018-07-11T23:37:34.038Z,15.81
2018-07-11T23:40:01.963Z,15.94
2018-07-11T23:42:29.906Z,15.57
2018-07-11T23:44:57.839Z,15.76
2018-07-11T23:47:25.957Z,15.61
2018-07-11T23:49:53.902Z,15.39
2018-07-11T23:52:21.858Z,15.22
2018-07-11T23:54:49.795Z,15.29
2018-07-11T23:57:17.747Z,15.45
2018-07-11T23:59:45.689Z,15.50
